createdAt,value
2023-04-08T00:02:18.535Z,98208.16
2023-04-08T00:05:21.907Z,98207.19
2023-04-08T00:08:26.378Z,98196.97
2023-04-08T00:11:29.776Z,98207.47
2023-04-08T00:14:32.923Z,98211.69
2023-04-08T00:17:36.416Z,98218.34
2023-04-08T00:20:39.580Z,98208.44
2023-04-08T00:23:44.216Z,98209.16
2023-04-08T00:26:47.802Z,98213.91
2023-04-08T00:29:50.879Z,98211.13
2023-04-08T00:32:54.123Z,98212.09
2023-04-08T00:35:57.538Z,98216.38
2023-04-08T00:39:02.123Z,98211.19
2023-04-08T00:42:05.284Z,98209.56
2023-04-08T00:45:10.006Z,98208.75
2023-04-08T00:48:13.305Z,98210.34
2023-04-08T00:51:16.930Z,98213.78
2023-04-08T00:54:21.428Z,98217.13
2023-04-08T00:57:24.568Z,98219.91
2023-04-08T01:00:29.437Z,98214.09
2023-04-08T01:03:40.483Z,98212.22
2023-04-08T01:06:50.717Z,98216.09
2023-04-08T01:09:57.956Z,98217.78
2023-04-08T01:13:08.310Z,98216.22
2023-04-08T01:16:15.774Z,98216.47
2023-04-08T01:19:33.974Z,98224.16
2023-04-08T01:22:46.522Z,98224.28
2023-04-08T01:25:53.633Z,98222.78
2023-04-08T01:29:01.752Z,98225.06
2023-04-08T01:32:05.433Z,98230.50
2023-04-08T01:35:10.705Z,98229.53
2023-04-08T01:38:18.017Z,98231.09
2023-04-08T01:41:22.979Z,98227.28
2023-04-08T01:44:28.738Z,98220.97
2023-04-08T01:47:32.578Z,98222.78
2023-04-08T01:50:36.654Z,98223.75
2023-04-08T01:53:39.908Z,98217.75
2023-04-08T01:56:47.209Z,98221.00
2023-04-08T01:59:53.439Z,98219.88
2023-04-08T02:02:58.731Z,98224.38
2023-04-08T02:06:02.119Z,98220.00
2023-04-08T02:09:05.768Z,98224.00
2023-04-08T02:12:11.457Z,98226.63
2023-04-08T02:15:15.666Z,98224.13
2023-04-08T02:18:26.353Z,98219.78
2023-04-08T02:21:38.445Z,98217.19
2023-04-08T02:24:42.152Z,98216.47
2023-04-08T02:27:48.700Z,98212.53
2023-04-08T02:30:53.920Z,98228.69
2023-04-08T02:33:58.716Z,98225.16
2023-04-08T02:37:04.289Z,98228.78
2023-04-08T02:40:24.808Z,98230.25
2023-04-08T02:43:32.219Z,98235.41
2023-04-08T02:46:35.421Z,98235.31
2023-04-08T02:49:39.830Z,98233.63
2023-04-08T02:52:44.808Z,98239.63
2023-04-08T02:55:48.224Z,98240.38
2023-04-08T02:58:52.985Z,98237.88
2023-04-08T03:01:57.380Z,98231.28
2023-04-08T03:05:00.813Z,98241.50
2023-04-08T03:08:04.079Z,98234.75
2023-04-08T03:11:07.208Z,98236.44
2023-04-08T03:14:11.764Z,98239.16
2023-04-08T03:17:14.893Z,98243.47
2023-04-08T03:20:18.040Z,98241.72
2023-04-08T03:23:21.571Z,98239.44
2023-04-08T03:26:24.817Z,98242.69
2023-04-08T03:29:29.461Z,98247.03
2023-04-08T03:35:02.658Z,98256.81
2023-04-08T03:38:05.950Z,98254.44
2023-04-08T03:41:09.102Z,98183.53
2023-04-08T03:44:12.403Z,98255.38
2023-04-08T03:47:15.591Z,98256.06
2023-04-08T03:50:20.120Z,98263.03
2023-04-08T03:53:23.436Z,98256.53
2023-04-08T03:56:26.580Z,98260.16
2023-04-08T03:59:29.687Z,98261.94
2023-04-08T04:02:32.943Z,98256.84
2023-04-08T04:05:37.846Z,98260.63
2023-04-08T04:08:40.950Z,98269.19
2023-04-08T04:11:44.063Z,98266.75
2023-04-08T04:14:47.353Z,98264.34
2023-04-08T04:17:51.110Z,98250.13
2023-04-08T04:20:55.852Z,98272.09
2023-04-08T04:23:58.976Z,98268.75
2023-04-08T04:27:02.118Z,98271.25
2023-04-08T04:30:06.057Z,98278.13
2023-04-08T04:33:10.017Z,98275.56
2023-04-08T04:36:14.494Z,98282.28
2023-04-08T04:39:17.887Z,98286.41
2023-04-08T04:42:21.607Z,98292.31
2023-04-08T04:45:24.742Z,98293.88
2023-04-08T04:48:27.861Z,98292.00
2023-04-08T04:51:33.689Z,98296.66
2023-04-08T04:54:36.887Z,98294.84
2023-04-08T04:57:40.127Z,98290.50
2023-04-08T05:00:43.340Z,98298.81
2023-04-08T05:03:46.515Z,98297.22
2023-04-08T05:06:51.244Z,98294.47
2023-04-08T05:09:55.273Z,98257.25
2023-04-08T05:12:58.540Z,98297.66
2023-04-08T05:16:02.029Z,98301.84
2023-04-08T05:19:05.244Z,98300.03
2023-04-08T05:22:10.263Z,98305.19
2023-04-08T05:25:13.365Z,98303.47
2023-04-08T05:28:16.664Z,98309.44
2023-04-08T05:31:21.441Z,98314.47
2023-04-08T05:34:24.723Z,98312.69
2023-04-08T05:37:29.375Z,98323.06
2023-04-08T05:40:34.531Z,98331.34
2023-04-08T05:43:37.887Z,98334.50
2023-04-08T05:46:41.264Z,98331.97
2023-04-08T05:49:44.347Z,98325.00
2023-04-08T05:52:48.929Z,98326.72
2023-04-08T05:55:52.051Z,98336.22
2023-04-08T05:58:55.177Z,98322.28
2023-04-08T06:01:58.350Z,98339.53
2023-04-08T06:05:01.904Z,98338.56
2023-04-08T06:08:07.124Z,98333.53
2023-04-08T06:11:10.350Z,98351.53
2023-04-08T06:14:13.586Z,98353.16
2023-04-08T06:17:16.718Z,98352.28
2023-04-08T06:20:20.147Z,98355.75
2023-04-08T06:23:24.733Z,98362.72
2023-04-08T06:26:28.336Z,98362.56
2023-04-08T06:29:31.386Z,98360.88
2023-04-08T06:32:34.529Z,98364.25
2023-04-08T06:35:38.269Z,98370.56
2023-04-08T06:38:42.740Z,98366.34
2023-04-08T06:41:45.934Z,98368.13
2023-04-08T06:45:10.230Z,98383.69
2023-04-08T06:48:13.340Z,98398.34
2023-04-08T06:51:16.734Z,98399.41
2023-04-08T06:54:21.294Z,98408.84
2023-04-08T06:57:24.527Z,98403.50
2023-04-08T07:00:27.658Z,98410.41
2023-04-08T07:03:30.863Z,98418.13
2023-04-08T07:06:34.205Z,98421.50
2023-04-08T07:09:38.753Z,98427.78
2023-04-08T07:12:41.918Z,98434.41
2023-04-08T07:15:44.981Z,98434.56
2023-04-08T07:18:48.318Z,98440.41
2023-04-08T07:21:52.715Z,98439.00
2023-04-08T07:24:57.344Z,98439.66
2023-04-08T07:28:00.724Z,98442.13
2023-04-08T07:31:11.829Z,98446.72
2023-04-08T07:34:15.018Z,98451.88
2023-04-08T07:37:18.832Z,98456.00
2023-04-08T07:40:23.370Z,98451.72
2023-04-08T07:43:26.539Z,98461.91
2023-04-08T07:46:29.803Z,98459.22
2023-04-08T07:49:32.982Z,98459.28
2023-04-08T07:52:36.374Z,98467.03
2023-04-08T07:55:42.429Z,98467.81
2023-04-08T07:58:45.746Z,98472.09
2023-04-08T08:01:48.939Z,98475.78
2023-04-08T08:04:52.173Z,98488.72
2023-04-08T08:07:55.416Z,98475.88
2023-04-08T08:11:00.019Z,98476.56
2023-04-08T08:14:04.498Z,98480.84
2023-04-08T08:17:07.686Z,98473.38
2023-04-08T08:20:11.536Z,98480.97
2023-04-08T08:23:14.690Z,98489.47
2023-04-08T08:26:19.270Z,98490.47
2023-04-08T08:29:22.351Z,98497.09
2023-04-08T08:32:25.589Z,98501.16
2023-04-08T08:35:28.792Z,98502.19
2023-04-08T08:38:32.052Z,98503.19
2023-04-08T08:41:37.718Z,98493.84
2023-04-08T08:44:41.358Z,98502.94
2023-04-08T08:47:44.636Z,98511.44
2023-04-08T08:50:48.031Z,98490.31
2023-04-08T08:53:51.336Z,98511.41
2023-04-08T08:56:56.076Z,98512.88
2023-04-08T08:59:59.167Z,98513.69
2023-04-08T09:03:19.583Z,98517.94
2023-04-08T09:06:23.058Z,98523.94
2023-04-08T09:09:27.142Z,98522.94
2023-04-08T09:12:31.803Z,98526.16
2023-04-08T09:15:35.138Z,98523.78
2023-04-08T09:18:39.370Z,98503.97
2023-04-08T09:21:43.506Z,98516.72
2023-04-08T09:24:46.702Z,98527.28
2023-04-08T09:27:51.186Z,98526.44
2023-04-08T09:35:03.555Z,98520.81
2023-04-08T09:38:07.444Z,98522.91
2023-04-08T09:41:14.281Z,98528.34
2023-04-08T09:44:20.663Z,98530.81
2023-04-08T09:47:29.878Z,98532.81
2023-04-08T09:50:41.475Z,98529.50
2023-04-08T09:53:49.300Z,98537.94
2023-04-08T09:56:59.702Z,98542.13
2023-04-08T10:00:09.672Z,98542.94
2023-04-08T10:03:29.280Z,98547.31
2023-04-08T10:06:35.700Z,98550.47
2023-04-08T10:09:41.509Z,98538.44
2023-04-08T10:12:45.246Z,98545.34
2023-04-08T10:15:49.063Z,98538.28
2023-04-08T10:18:55.620Z,98544.47
2023-04-08T10:22:00.782Z,98537.47
2023-04-08T10:25:33.321Z,98536.91
2023-04-08T10:28:36.493Z,98532.72
2023-04-08T10:31:41.485Z,98530.94
2023-04-08T10:34:54.472Z,98525.38
2023-04-08T10:37:59.278Z,98533.94
2023-04-08T10:41:02.795Z,98522.81
2023-04-08T10:44:06.066Z,98520.41
2023-04-08T10:47:09.526Z,98525.03
2023-04-08T10:50:17.909Z,98507.78
2023-04-08T10:53:27.837Z,98523.22
2023-04-08T10:56:31.009Z,98524.84
2023-04-08T10:59:34.217Z,98522.56
2023-04-08T11:02:39.431Z,98522.16
2023-04-08T11:05:43.633Z,98522.13
2023-04-08T11:08:48.197Z,98520.56
2023-04-08T11:11:53.600Z,98525.78
2023-04-08T11:14:57.080Z,98526.34
2023-04-08T11:18:02.342Z,98518.31
2023-04-08T11:21:09.756Z,98523.63
2023-04-08T11:24:14.381Z,98523.63
2023-04-08T11:27:17.817Z,98519.50
2023-04-08T11:30:21.779Z,98519.06
2023-04-08T11:33:26.346Z,98517.88
2023-04-08T11:36:30.187Z,98520.31
2023-04-08T11:39:34.947Z,98514.38
2023-04-08T11:42:38.801Z,98519.66
2023-04-08T11:45:43.004Z,98516.19
2023-04-08T11:48:59.426Z,98523.31
2023-04-08T11:52:02.601Z,98517.75
2023-04-08T11:55:07.952Z,98516.66
2023-04-08T11:58:11.391Z,98516.66
2023-04-08T12:01:14.790Z,98520.81
2023-04-08T12:04:18.097Z,98520.66
2023-04-08T12:07:21.464Z,98522.06
2023-04-08T12:10:26.562Z,98515.88
2023-04-08T12:13:31.389Z,98519.63
2023-04-08T12:16:34.609Z,98513.72
2023-04-08T12:19:38.549Z,98508.25
2023-04-08T12:22:41.800Z,98509.53
2023-04-08T12:25:46.276Z,98503.88
2023-04-08T12:28:49.423Z,98502.00
2023-04-08T12:31:53.329Z,98507.63
2023-04-08T12:34:56.940Z,98505.13
2023-04-08T12:38:00.176Z,98510.75
2023-04-08T12:41:04.876Z,98517.47
2023-04-08T12:44:08.041Z,98518.47
2023-04-08T12:47:11.358Z,98522.00
2023-04-08T12:50:15.171Z,98520.66
2023-04-08T12:53:18.328Z,98519.78
2023-04-08T12:56:22.848Z,98515.25
2023-04-08T12:59:26.100Z,98508.41
2023-04-08T13:02:29.371Z,98513.56
2023-04-08T13:05:42.749Z,98513.31
2023-04-08T13:08:47.222Z,98514.31
2023-04-08T13:11:51.944Z,98511.56
2023-04-08T13:14:55.191Z,98518.53
2023-04-08T13:17:58.397Z,98513.38
2023-04-08T13:21:01.604Z,98523.09
2023-04-08T13:24:05.189Z,98519.78
2023-04-08T13:27:09.668Z,98522.25
2023-04-08T13:30:13.650Z,98523.78
2023-04-08T13:33:17.245Z,98524.00
2023-04-08T13:36:20.410Z,98517.72
2023-04-08T13:39:23.702Z,98516.69
2023-04-08T13:42:28.355Z,98512.38
2023-04-08T13:45:31.683Z,98510.38
2023-04-08T13:48:34.832Z,98509.41
2023-04-08T13:51:37.997Z,98509.00
2023-04-08T13:54:41.392Z,98511.47
2023-04-08T13:57:46.151Z,98511.59
2023-04-08T14:00:51.232Z,98513.84
2023-04-08T14:03:54.410Z,98509.84
2023-04-08T14:06:58.167Z,98511.06
2023-04-08T14:10:01.395Z,98511.00
2023-04-08T14:13:06.158Z,98507.88
2023-04-08T14:16:09.568Z,98510.88
2023-04-08T14:19:12.763Z,98504.69
2023-04-08T14:22:16.942Z,98502.50
2023-04-08T14:25:20.155Z,98505.06
2023-04-08T14:28:24.737Z,98510.81
2023-04-08T14:31:28.069Z,98500.84
2023-04-08T14:34:31.223Z,98501.38
2023-04-08T14:37:34.573Z,98498.88
2023-04-08T14:40:37.988Z,98494.41
2023-04-08T14:43:42.507Z,98494.88
2023-04-08T14:46:45.788Z,98493.06
2023-04-08T14:49:48.981Z,98493.69
2023-04-08T14:52:52.152Z,98484.72
2023-04-08T14:55:55.300Z,98492.22
2023-04-08T14:58:59.865Z,98494.69
2023-04-08T15:02:03.148Z,98486.56
2023-04-08T15:05:07.169Z,98492.72
2023-04-08T15:08:10.689Z,98494.72
2023-04-08T15:11:13.906Z,98418.81
2023-04-08T15:14:18.376Z,98498.28
2023-04-08T15:17:21.889Z,98501.75
2023-04-08T15:20:25.283Z,98494.94
2023-04-08T15:23:28.385Z,98499.06
2023-04-08T15:26:31.807Z,98506.91
2023-04-08T15:29:36.721Z,98510.41
2023-04-08T15:35:02.560Z,98521.72
2023-04-08T15:38:05.753Z,98524.91
2023-04-08T15:41:16.798Z,98525.00
2023-04-08T15:44:19.866Z,98518.50
2023-04-08T15:47:23.489Z,98524.63
2023-04-08T15:50:31.358Z,98521.09
2023-04-08T15:53:34.509Z,98527.25
2023-04-08T15:56:37.541Z,98529.09
2023-04-08T15:59:40.612Z,98530.78
2023-04-08T16:02:44.063Z,98534.31
2023-04-08T16:05:48.955Z,98531.91
2023-04-08T16:08:52.413Z,98543.09
2023-04-08T16:11:55.906Z,98544.97
2023-04-08T16:14:59.032Z,98546.47
2023-04-08T16:18:03.269Z,98551.75
2023-04-08T16:21:08.000Z,98551.78
2023-04-08T16:24:11.520Z,98558.00
2023-04-08T16:27:14.692Z,98560.00
2023-04-08T16:30:18.089Z,98558.59
2023-04-08T16:33:23.895Z,98574.09
2023-04-08T16:36:28.490Z,98565.38
2023-04-08T16:39:31.782Z,98571.44
2023-04-08T16:42:34.948Z,98571.41
2023-04-08T16:45:38.995Z,98589.53
2023-04-08T16:48:43.769Z,98589.19
2023-04-08T16:51:48.945Z,98585.28
2023-04-08T16:54:52.444Z,98590.59
2023-04-08T16:57:55.604Z,98595.69
2023-04-08T17:00:58.776Z,98597.09
2023-04-08T17:04:02.008Z,98603.91
2023-04-08T17:07:06.586Z,98611.00
2023-04-08T17:10:11.342Z,98606.84
2023-04-08T17:13:14.984Z,98614.84
2023-04-08T17:16:19.367Z,98613.91
2023-04-08T17:19:22.505Z,98619.19
2023-04-08T17:22:27.420Z,98630.66
2023-04-08T17:25:35.321Z,98628.88
2023-04-08T17:28:38.510Z,98635.81
2023-04-08T17:31:41.734Z,98631.50
2023-04-08T17:34:44.921Z,98624.94
2023-04-08T17:37:50.233Z,98637.06
2023-04-08T17:40:53.427Z,98634.50
2023-04-08T17:43:57.217Z,98638.84
2023-04-08T17:47:00.596Z,98643.06
2023-04-08T17:50:03.733Z,98651.56
2023-04-08T17:53:08.269Z,98649.16
2023-04-08T17:56:11.881Z,98648.47
2023-04-08T17:59:15.046Z,98650.94
2023-04-08T18:02:18.402Z,98660.59
2023-04-08T18:05:21.856Z,98664.88
2023-04-08T18:08:26.473Z,98674.16
2023-04-08T18:11:29.608Z,98663.22
2023-04-08T18:14:32.679Z,98670.13
2023-04-08T18:17:35.871Z,98680.56
2023-04-08T18:20:39.085Z,98683.16
2023-04-08T18:23:43.589Z,98684.84
2023-04-08T18:26:49.109Z,98688.31
2023-04-08T18:29:57.491Z,98685.00
2023-04-08T18:33:01.898Z,98690.91
2023-04-08T18:36:07.971Z,98693.69
2023-04-08T18:39:12.578Z,98708.25
2023-04-08T18:42:16.172Z,98704.06
2023-04-08T18:45:19.514Z,98707.53
2023-04-08T18:48:22.691Z,98703.34
2023-04-08T18:51:26.572Z,98712.06
2023-04-08T18:54:31.493Z,98711.75
2023-04-08T18:57:34.691Z,98726.47
2023-04-08T19:00:39.568Z,98726.41
2023-04-08T19:03:43.854Z,98728.25
2023-04-08T19:06:47.326Z,98727.09
2023-04-08T19:09:51.936Z,98726.88
2023-04-08T19:12:55.119Z,98726.41
2023-04-08T19:15:58.572Z,98723.53
2023-04-08T19:19:02.278Z,98739.16
2023-04-08T19:22:06.055Z,98734.78
2023-04-08T19:25:10.940Z,98733.09
2023-04-08T19:28:14.514Z,98741.00
2023-04-08T19:31:17.869Z,98735.88
2023-04-08T19:34:20.983Z,98735.63
2023-04-08T19:37:24.356Z,98746.03
2023-04-08T19:40:34.459Z,98746.97
2023-04-08T19:43:37.594Z,98743.63
2023-04-08T19:46:41.057Z,98745.41
2023-04-08T19:49:44.400Z,98753.16
2023-04-08T19:52:47.830Z,98752.28
2023-04-08T19:55:59.669Z,98760.03
2023-04-08T19:59:02.792Z,98760.25
2023-04-08T20:02:06.515Z,98757.72
2023-04-08T20:05:16.321Z,98759.28
2023-04-08T20:08:19.511Z,98751.41
2023-04-08T20:11:24.099Z,98759.34
2023-04-08T20:14:27.226Z,98763.53
2023-04-08T20:17:33.388Z,98758.47
2023-04-08T20:20:36.635Z,98756.78
2023-04-08T20:23:44.053Z,98757.63
2023-04-08T20:26:48.537Z,98768.84
2023-04-08T20:29:52.411Z,98767.22
2023-04-08T20:32:56.018Z,98764.63
2023-04-08T20:35:59.248Z,98762.88
2023-04-08T20:39:02.478Z,98765.63
2023-04-08T20:42:09.348Z,98770.75
2023-04-08T20:45:12.636Z,98769.06
2023-04-08T20:48:16.499Z,98757.94
2023-04-08T20:51:19.827Z,98775.78
2023-04-08T20:54:23.412Z,98775.66
2023-04-08T20:57:27.980Z,98772.44
2023-04-08T21:00:31.125Z,98762.13
2023-04-08T21:03:34.465Z,98778.78
2023-04-08T21:06:37.807Z,98780.59
2023-04-08T21:09:40.982Z,98778.88
2023-04-08T21:12:45.972Z,98783.22
2023-04-08T21:15:49.190Z,98792.69
2023-04-08T21:18:52.653Z,98788.44
2023-04-08T21:21:56.102Z,98789.09
2023-04-08T21:24:59.274Z,98786.75
2023-04-08T21:28:03.807Z,98785.19
2023-04-08T21:35:04.012Z,98785.41
2023-04-08T21:38:07.624Z,98446.19
2023-04-08T21:41:12.366Z,98792.84
2023-04-08T21:44:17.214Z,98719.19
2023-04-08T21:47:20.873Z,98794.09
2023-04-08T21:50:27.101Z,98769.25
2023-04-08T21:53:30.803Z,98779.47
2023-04-08T21:56:34.890Z,98579.47
2023-04-08T21:59:38.655Z,98795.72
2023-04-08T22:02:42.672Z,98793.97
2023-04-08T22:05:48.269Z,98792.38
2023-04-08T22:08:52.120Z,98678.00
2023-04-08T22:11:57.038Z,98689.94
2023-04-08T22:15:01.416Z,98785.69
2023-04-08T22:18:06.030Z,98700.22
2023-04-08T22:21:11.374Z,98791.44
2023-04-08T22:24:15.078Z,98802.59
2023-04-08T22:27:19.026Z,98626.38
2023-04-08T22:30:22.819Z,98748.22
2023-04-08T22:33:26.790Z,98731.19
2023-04-08T22:36:32.148Z,98806.91
2023-04-08T22:39:35.929Z,98754.91
2023-04-08T22:42:39.747Z,98781.41
2023-04-08T22:45:43.594Z,98793.44
2023-04-08T22:48:47.821Z,98791.69
2023-04-08T22:51:53.612Z,98687.19
2023-04-08T22:54:57.763Z,98586.53
2023-04-08T22:58:02.673Z,98731.81
2023-04-08T23:01:12.552Z,98740.75
2023-04-08T23:04:16.265Z,98727.84
2023-04-08T23:07:21.535Z,98805.28
2023-04-08T23:10:25.106Z,98769.94
2023-04-08T23:13:29.484Z,98800.47
2023-04-08T23:16:32.931Z,98590.38
2023-04-08T23:19:36.646Z,98796.16
2023-04-08T23:22:41.821Z,98664.81
2023-04-08T23:25:45.710Z,98632.66
2023-04-08T23:28:50.077Z,98655.56
2023-04-08T23:31:54.288Z,98801.38
2023-04-08T23:34:57.980Z,98741.16
2023-04-08T23:38:03.481Z,98802.31
2023-04-08T23:41:07.472Z,98793.78
2023-04-08T23:44:11.942Z,98796.53
2023-04-08T23:47:16.161Z,98744.09
2023-04-08T23:50:20.250Z,98801.72
2023-04-08T23:53:25.040Z,98740.44
2023-04-08T23:56:29.335Z,98734.63
2023-04-08T23:59:34.227Z,98767.91
